• Join FlightAware (Why Join?)
  • Login
  • US Flag 
06:09PM EDT


 

Airport Tracker/Info


-or-


 

Live Flight TrackerFlight Track Log ✈ SKW5510 ✈ 29-Apr-2013 ✈ KDEN - KTUL

Flight Track Log - Related Links

Times and Time Zones

All times are in EDT time to prevent confusion due to time zone crossing. See the SKW5510 flight status page for this flight to view local times or setup timezone preferences in your user account.

Time Position Orientation Groundspeed Altitude Reporting Facility
EDT Latitude Longitude Course Direction KTS MPH feet Rate Location/Type
03:45PM 39.0881 -102.5997 115° Southeast  Level Estimated
03:46PM 39.0352 -102.4631 116° Southeast  Level Estimated
03:47PM 38.9822 -102.3267 117° Southeast  Level Estimated
03:48PM 38.9290 -102.1905 117° Southeast  Level Estimated
03:49PM 38.8756 -102.0545 117° Southeast  Level Estimated
03:50PM 38.8221 -101.9187 117° Southeast  Level Estimated
03:51PM 38.7685 -101.7832 117° Southeast  Level Estimated
03:52PM 38.7146 -101.6478 117° Southeast  Level Estimated
03:53PM 38.6607 -101.5126 117° Southeast  Level Estimated
03:54PM 38.6065 -101.3777 117° Southeast  Level Estimated
03:55PM 38.5522 -101.2429 117° Southeast  Level Estimated
03:56PM 38.4978 -101.1084 117° Southeast  Level Estimated
03:57PM 38.4432 -100.9740 117° Southeast  Level Estimated
03:58PM 38.3885 -100.8399 117° Southeast  Level Estimated
03:59PM 38.3336 -100.7059 118° Southeast  Level Estimated
04:00PM 38.2785 -100.5722 118° Southeast  Level Estimated
04:01PM 38.2233 -100.4386 118° Southeast  Level Estimated
04:02PM 38.1680 -100.3053 118° Southeast  Level Estimated
04:03PM 38.1125 -100.1722 118° Southeast  Level Estimated
04:04PM 38.0568 -100.0393 118° Southeast  Level Estimated
04:05PM 38.0010 -99.9065 118° Southeast  Level Estimated
04:06PM 37.9451 -99.7740 118° Southeast  Level Estimated
04:07PM 37.8890 -99.6417 118° Southeast  Level Estimated
04:08PM 37.8327 -99.5096 118° Southeast  Level Estimated
04:09PM 37.7763 -99.3776 118° Southeast  Level Estimated
04:10PM 37.7198 -99.2459 118° Southeast  Level Estimated
04:11PM 37.6631 -99.1144 119° Southeast  Level Estimated
04:12PM 37.6063 -98.9831 119° Southeast  Level Estimated
04:13PM 37.5493 -98.8520 119° Southeast  Level Estimated
04:14PM 37.4922 -98.7210 119° Southeast  Level Estimated
04:15PM 37.4349 -98.5903 119° Southeast  Level Estimated
04:16PM 37.3775 -98.4598 119° Southeast  Level Estimated
04:17PM 37.3199 -98.3295 119° Southeast  Level Estimated
04:18PM 37.2622 -98.1994 119° Southeast  Level Estimated
04:19PM 37.2044 -98.0695 119° Southeast  Level Estimated
04:20PM 37.1464 -97.9398 119° Southeast  Level Estimated
04:21PM 37.0883 -97.8102 119° Southeast  Level Estimated
04:22PM 37.0300 -97.6809 119° Southeast  Level Estimated
04:23PM 36.9716 -97.5518 119° Southeast  Level Estimated
04:24PM 36.9131 -97.4229 120° Southeast  Level Estimated
04:25PM 36.8544 -97.2942 120° Southeast  Level Estimated
04:26PM 36.7956 -97.1656 120° Southeast  Level Estimated
04:27PM 36.7366 -97.0373 120° Southeast  Level Estimated
04:28PM 36.6775 -96.9092 120° Southeast  Level Estimated
04:29PM 36.6183 -96.7812 120° Southeast  Level Estimated
04:30PM 36.5589 -96.6535 120° Southeast  Level Estimated
04:31PM 36.4994 -96.5260 120° Southeast  Level Estimated
04:32PM 36.4398 -96.3986 120° Southeast  Level Estimated
04:33PM 36.3800 -96.2715 120° Southeast  Level Estimated
04:34PM 36.3201 -96.1445 120° Southeast  Level Estimated
04:35PM 36.2600 -96.0178 120° Southeast  Level Estimated
04:36PM 36.1999 -95.8912 120° Southeast  Level Estimated
04:37PM 36.1984 -95.8881 120° Southeast  Level Estimated
04:38PM 36.1984 -95.8881 219° Southwest  Level Estimated
04:39PM 36.1984 -95.8881 219° Southwest  Level Estimated
04:40PM 36.1984 -95.8881 219° Southwest  Level Estimated
04:41PM 36.1984 -95.8881 219° Southwest  Level Estimated
04:42PM 36.1984 -95.8881 219° Southwest  Level Estimated
04:43PM 36.1984 -95.8881 219° Southwest  Level Estimated
04:44PM 36.1984 -95.8881 219° Southwest  Level Estimated
04:45PM 36.1984 -95.8881 219° Southwest  Level Estimated
04:46PM 36.1984 -95.8881 219° Southwest  Level Estimated
04:47PM 36.1984 -95.8881 219° Southwest  Level Estimated
04:48PM 36.1984 -95.8881 219° Southwest  Level Estimated
04:49PM 36.1984 -95.8881 219° Southwest  Level Estimated
04:50PM 36.1984 -95.8881 219° Southwest  Level Estimated
04:51PM 36.1984 -95.8881 219° Southwest  Level Estimated